createdAt,value
2022-11-25T00:00:00.821Z,6.29
2022-11-25T00:02:28.395Z,6.11
2022-11-25T00:04:56.129Z,6.36
2022-11-25T00:07:23.602Z,6.08
2022-11-25T00:09:50.942Z,6.28
2022-11-25T00:12:18.564Z,6.29
2022-11-25T00:14:45.900Z,6.47
2022-11-25T00:17:13.548Z,6.49
2022-11-25T00:19:41.158Z,6.45
2022-11-25T00:22:08.459Z,6.11
2022-11-25T00:24:36.023Z,6.32
2022-11-25T00:27:05.046Z,6.40
2022-11-25T00:29:35.157Z,6.30
2022-11-25T00:32:02.545Z,6.42
2022-11-25T00:34:33.710Z,6.29
2022-11-25T00:37:01.154Z,6.43
2022-11-25T00:39:28.885Z,6.22
2022-11-25T00:42:15.523Z,6.26
2022-11-25T00:44:42.880Z,6.18
2022-11-25T00:47:12.182Z,6.19
2022-11-25T00:49:40.627Z,6.22
2022-11-25T00:52:08.185Z,6.24
2022-11-25T00:54:36.144Z,6.07
2022-11-25T00:57:03.774Z,5.86
2022-11-25T00:59:31.183Z,5.40
2022-11-25T01:01:59.917Z,4.97
2022-11-25T01:04:27.369Z,4.83
2022-11-25T01:06:56.732Z,5.61
2022-11-25T01:09:24.352Z,5.10
2022-11-25T01:11:51.782Z,5.33
2022-11-25T01:14:19.552Z,5.78
2022-11-25T01:16:48.213Z,5.09
2022-11-25T01:19:15.877Z,4.86
2022-11-25T01:21:43.264Z,5.21
2022-11-25T01:24:13.434Z,5.88
2022-11-25T01:26:40.836Z,6.13
2022-11-25T01:29:17.409Z,6.18
2022-11-25T01:31:45.482Z,6.28
2022-11-25T01:34:20.710Z,6.50
2022-11-25T01:36:48.447Z,5.83
2022-11-25T01:39:20.527Z,5.31
2022-11-25T01:41:49.584Z,5.97
2022-11-25T01:44:21.691Z,6.27
2022-11-25T01:47:01.831Z,5.96
2022-11-25T01:49:50.387Z,5.46
2022-11-25T01:52:29.671Z,5.43
2022-11-25T01:55:01.120Z,5.34
2022-11-25T01:57:34.885Z,5.37
2022-11-25T02:00:02.435Z,5.30
2022-11-25T02:02:31.396Z,4.68
2022-11-25T02:05:00.058Z,5.01
2022-11-25T02:07:41.519Z,4.76
2022-11-25T02:10:11.780Z,4.73
2022-11-25T02:12:44.506Z,4.44
2022-11-25T02:15:12.020Z,5.32
2022-11-25T02:17:39.391Z,5.29
2022-11-25T02:20:14.845Z,4.64
2022-11-25T02:23:03.829Z,5.42
2022-11-25T02:25:32.862Z,4.48
2022-11-25T02:28:10.779Z,4.80
2022-11-25T02:30:38.657Z,4.52
2022-11-25T02:33:06.729Z,4.51
2022-11-25T02:35:36.497Z,4.50
2022-11-25T02:38:22.721Z,5.04
2022-11-25T02:40:58.901Z,4.82
2022-11-25T02:43:27.241Z,4.42
2022-11-25T02:46:00.297Z,4.49
2022-11-25T02:48:46.144Z,4.38
2022-11-25T02:51:17.606Z,4.18
2022-11-25T02:53:45.302Z,4.63
2022-11-25T02:56:13.759Z,5.19
2022-11-25T02:58:41.292Z,5.20
2022-11-25T03:01:09.486Z,5.07
2022-11-25T03:03:37.300Z,4.80
2022-11-25T03:06:07.196Z,4.20
2022-11-25T03:08:35.131Z,4.14
2022-11-25T03:11:06.136Z,4.39
2022-11-25T03:13:33.880Z,4.60
2022-11-25T03:16:01.536Z,4.93
2022-11-25T03:18:29.041Z,4.06
2022-11-25T03:20:56.422Z,4.08
2022-11-25T03:23:24.134Z,4.66
2022-11-25T03:25:54.459Z,4.35
2022-11-25T03:28:22.038Z,4.41
2022-11-25T03:30:50.333Z,4.38
2022-11-25T03:33:17.669Z,4.44
2022-11-25T03:35:45.525Z,4.00
2022-11-25T03:38:13.083Z,3.53
2022-11-25T03:40:41.124Z,3.42
2022-11-25T03:43:09.159Z,3.50
2022-11-25T03:45:37.237Z,4.42
2022-11-25T03:48:05.621Z,4.30
2022-11-25T03:50:33.286Z,4.54
2022-11-25T03:53:00.879Z,4.64
2022-11-25T03:55:28.220Z,4.76
2022-11-25T03:57:55.779Z,5.07
2022-11-25T04:00:24.936Z,4.89
2022-11-25T04:02:53.287Z,4.86
2022-11-25T04:05:21.741Z,5.52
2022-11-25T04:07:52.323Z,5.43
2022-11-25T04:10:23.988Z,4.67
2022-11-25T04:12:52.518Z,4.97
2022-11-25T04:15:20.233Z,4.66
2022-11-25T04:17:48.453Z,5.03
2022-11-25T04:20:15.794Z,5.18
2022-11-25T04:22:43.411Z,5.55
2022-11-25T04:25:11.286Z,5.78
2022-11-25T04:27:38.671Z,5.85
2022-11-25T04:30:08.437Z,5.36
2022-11-25T04:32:37.815Z,5.06
2022-11-25T04:35:06.535Z,3.86
2022-11-25T04:37:34.409Z,3.86
2022-11-25T04:40:02.014Z,4.41
2022-11-25T04:42:32.923Z,4.23
2022-11-25T04:45:21.934Z,4.21
2022-11-25T04:47:49.119Z,4.37
2022-11-25T04:50:19.146Z,4.85
2022-11-25T04:52:47.467Z,5.27
2022-11-25T04:55:15.098Z,5.62
2022-11-25T04:57:43.131Z,5.69
2022-11-25T05:00:11.651Z,5.65
2022-11-25T05:02:39.458Z,5.85
2022-11-25T05:05:07.817Z,5.96
2022-11-25T05:07:35.407Z,5.81
2022-11-25T05:10:03.204Z,5.96
2022-11-25T05:12:31.338Z,5.94
2022-11-25T05:14:59.365Z,5.53
2022-11-25T05:17:28.646Z,5.39
2022-11-25T05:19:56.156Z,4.97
2022-11-25T05:22:25.771Z,4.78
2022-11-25T05:24:53.575Z,4.90
2022-11-25T05:27:21.380Z,4.93
2022-11-25T05:29:52.928Z,4.61
2022-11-25T05:32:23.885Z,4.49
2022-11-25T05:34:51.627Z,4.30
2022-11-25T05:37:24.081Z,4.51
2022-11-25T05:39:52.276Z,4.50
2022-11-25T05:42:20.751Z,4.56
2022-11-25T05:44:48.418Z,4.22
2022-11-25T05:47:16.031Z,4.36
2022-11-25T05:49:43.437Z,4.41
2022-11-25T05:52:10.876Z,4.84
2022-11-25T05:54:39.348Z,4.88
2022-11-25T05:57:06.945Z,5.07
2022-11-25T05:59:39.142Z,5.00
2022-11-25T06:02:07.053Z,5.14
2022-11-25T06:04:35.166Z,4.92
2022-11-25T06:07:03.197Z,5.19
2022-11-25T06:09:30.717Z,5.46
2022-11-25T06:11:58.438Z,5.56
2022-11-25T06:14:25.919Z,5.63
2022-11-25T06:16:53.506Z,5.76
2022-11-25T06:19:21.946Z,5.70
2022-11-25T06:21:49.267Z,5.73
2022-11-25T06:24:16.669Z,5.90
2022-11-25T06:26:44.651Z,5.84
2022-11-25T06:29:12.013Z,5.90
2022-11-25T06:31:39.870Z,6.06
2022-11-25T06:34:09.341Z,6.10
2022-11-25T06:36:36.952Z,6.18
2022-11-25T06:39:04.428Z,5.85
2022-11-25T06:41:32.050Z,5.97
2022-11-25T06:43:59.399Z,6.12
2022-11-25T06:46:26.770Z,5.93
2022-11-25T06:48:54.398Z,6.12
2022-11-25T06:51:21.780Z,6.01
2022-11-25T06:53:49.122Z,6.21
2022-11-25T06:56:23.673Z,6.23
2022-11-25T06:58:51.273Z,6.08
2022-11-25T07:01:19.985Z,6.19
2022-11-25T07:03:48.863Z,6.37
2022-11-25T07:06:16.515Z,6.24
2022-11-25T07:08:44.330Z,6.45
2022-11-25T07:11:23.478Z,6.60
2022-11-25T07:13:56.273Z,6.61
2022-11-25T07:16:23.827Z,6.70
2022-11-25T07:18:51.557Z,6.72
2022-11-25T07:21:20.646Z,6.64
2022-11-25T07:23:48.075Z,6.71
2022-11-25T07:26:23.531Z,6.73
2022-11-25T07:28:52.271Z,6.86
2022-11-25T07:31:34.572Z,6.96
2022-11-25T07:34:12.419Z,7.05
2022-11-25T07:36:40.228Z,7.08
2022-11-25T07:39:09.327Z,7.24
2022-11-25T07:41:36.679Z,7.07
2022-11-25T07:44:05.238Z,7.02
2022-11-25T07:46:37.694Z,7.08
2022-11-25T07:49:26.437Z,7.10
2022-11-25T07:51:56.665Z,7.06
2022-11-25T07:54:26.240Z,6.24
2022-11-25T07:56:54.530Z,5.33
2022-11-25T07:59:22.349Z,6.14
2022-11-25T08:01:51.060Z,6.56
2022-11-25T08:04:20.789Z,7.03
2022-11-25T08:06:49.852Z,6.87
2022-11-25T08:09:19.312Z,6.77
2022-11-25T08:11:47.561Z,6.88
2022-11-25T08:14:15.232Z,7.15
2022-11-25T08:16:42.567Z,7.26
2022-11-25T08:19:13.781Z,7.49
2022-11-25T08:21:41.553Z,7.44
2022-11-25T08:24:13.312Z,7.52
2022-11-25T08:26:40.926Z,7.57
2022-11-25T08:29:09.319Z,7.69
2022-11-25T08:31:37.955Z,7.75
2022-11-25T08:34:06.124Z,7.62
2022-11-25T08:36:48.664Z,7.95
2022-11-25T08:39:44.428Z,7.96
2022-11-25T08:42:04.980Z,7.83
2022-11-25T08:44:32.600Z,7.73
2022-11-25T08:47:00.018Z,7.19
2022-11-25T08:49:29.241Z,6.79
2022-11-25T08:51:56.929Z,7.81
2022-11-25T08:54:24.285Z,7.88
2022-11-25T08:56:51.622Z,7.99
2022-11-25T08:59:19.204Z,7.95
2022-11-25T09:01:46.621Z,7.27
2022-11-25T09:04:14.022Z,7.46
2022-11-25T09:06:41.616Z,8.06
2022-11-25T09:09:08.954Z,8.25
2022-11-25T09:11:36.385Z,7.71
2022-11-25T09:14:04.162Z,8.08
2022-11-25T09:16:31.619Z,8.28
2022-11-25T09:19:00.015Z,8.26
2022-11-25T09:21:27.678Z,8.31
2022-11-25T09:23:55.064Z,8.01
2022-11-25T09:26:26.903Z,8.43
2022-11-25T09:28:54.717Z,8.44
2022-11-25T09:31:22.511Z,8.73
2022-11-25T09:33:49.973Z,8.18
2022-11-25T09:36:18.164Z,8.54
2022-11-25T09:38:45.619Z,8.14
2022-11-25T09:41:45.872Z,8.55
2022-11-25T09:44:44.293Z,8.71
2022-11-25T09:47:45.240Z,8.51
2022-11-25T09:50:23.914Z,8.94
2022-11-25T09:53:25.047Z,8.32
2022-11-25T09:56:00.046Z,8.44
2022-11-25T09:58:37.347Z,8.88
2022-11-25T10:01:14.371Z,8.38
2022-11-25T10:03:46.263Z,8.17
2022-11-25T10:06:17.999Z,8.83
2022-11-25T10:08:59.008Z,8.92
2022-11-25T10:11:44.783Z,8.85
2022-11-25T10:14:21.571Z,8.85
2022-11-25T10:17:11.575Z,9.10
2022-11-25T10:20:11.832Z,8.63
2022-11-25T10:22:46.773Z,8.76
2022-11-25T10:25:17.127Z,8.40
2022-11-25T10:28:00.200Z,8.30
2022-11-25T10:30:34.451Z,8.65
2022-11-25T10:33:21.142Z,8.96
2022-11-25T10:35:51.827Z,8.69
2022-11-25T10:38:25.102Z,8.77
2022-11-25T10:40:52.775Z,8.76
2022-11-25T10:43:20.225Z,9.52
2022-11-25T10:45:53.236Z,9.21
2022-11-25T10:48:44.204Z,8.92
2022-11-25T10:51:32.279Z,8.71
2022-11-25T10:54:39.018Z,9.10
2022-11-25T10:57:17.867Z,9.04
2022-11-25T10:59:56.149Z,9.54
2022-11-25T11:02:30.979Z,9.76
2022-11-25T11:05:11.088Z,9.25
2022-11-25T11:07:42.998Z,9.40
2022-11-25T11:10:26.254Z,9.67
2022-11-25T11:13:03.816Z,9.74
2022-11-25T11:15:41.372Z,9.52
2022-11-25T11:18:25.750Z,9.31
2022-11-25T11:20:55.540Z,9.59
2022-11-25T11:23:23.029Z,9.52
2022-11-25T11:26:03.592Z,9.83
2022-11-25T11:28:38.966Z,10.03
2022-11-25T11:31:17.512Z,9.76
2022-11-25T11:33:48.370Z,9.68
2022-11-25T11:36:53.085Z,9.91
2022-11-25T11:40:00.253Z,9.22
2022-11-25T11:42:38.446Z,9.80
2022-11-25T11:45:06.286Z,9.77
2022-11-25T11:47:52.433Z,9.85
2022-11-25T11:50:24.974Z,10.25
2022-11-25T11:52:55.324Z,10.63
2022-11-25T11:56:00.299Z,10.23
2022-11-25T11:58:52.009Z,9.85
2022-11-25T12:01:56.940Z,9.99
2022-11-25T12:04:28.525Z,10.38
2022-11-25T12:07:22.986Z,10.52
2022-11-25T12:09:57.090Z,10.65
2022-11-25T12:12:33.172Z,10.84
2022-11-25T12:15:21.175Z,10.68
2022-11-25T12:18:23.595Z,11.03
2022-11-25T12:21:03.019Z,10.71
2022-11-25T12:23:36.119Z,9.90
2022-11-25T12:26:08.184Z,10.64
2022-11-25T12:28:43.536Z,10.78
2022-11-25T12:31:20.738Z,10.84
2022-11-25T12:34:04.403Z,10.79
2022-11-25T12:36:40.486Z,11.06
2022-11-25T12:39:33.023Z,11.03
2022-11-25T12:42:06.104Z,11.43
2022-11-25T12:44:59.594Z,11.11
2022-11-25T12:47:27.646Z,11.31
2022-11-25T12:49:55.418Z,11.32
2022-11-25T12:52:42.825Z,11.40
2022-11-25T12:55:27.912Z,11.28
2022-11-25T12:58:11.753Z,11.50
2022-11-25T13:01:18.420Z,11.43
2022-11-25T13:04:07.468Z,11.41
2022-11-25T13:06:53.959Z,11.35
2022-11-25T13:10:01.923Z,11.30
2022-11-25T13:12:48.365Z,11.32
2022-11-25T13:15:38.184Z,11.32
2022-11-25T13:18:11.402Z,11.21
2022-11-25T13:20:44.204Z,11.27
2022-11-25T13:23:13.139Z,11.15
2022-11-25T13:25:41.383Z,11.30
2022-11-25T13:28:34.123Z,11.13
2022-11-25T13:31:14.093Z,11.14
2022-11-25T13:33:44.778Z,11.19
2022-11-25T13:36:16.496Z,11.11
2022-11-25T13:38:50.050Z,10.43
2022-11-25T13:41:22.921Z,9.51
2022-11-25T13:44:04.361Z,10.13
2022-11-25T13:46:39.623Z,10.46
2022-11-25T13:49:28.824Z,10.51
2022-11-25T13:52:11.777Z,10.88
2022-11-25T13:54:49.761Z,10.88
2022-11-25T13:57:19.888Z,11.11
2022-11-25T13:59:55.580Z,11.05
2022-11-25T14:02:29.089Z,11.14
2022-11-25T14:05:30.553Z,11.02
2022-11-25T14:08:20.986Z,11.02
2022-11-25T14:11:37.628Z,10.88
2022-11-25T14:14:55.975Z,10.85
2022-11-25T14:17:24.151Z,10.83
2022-11-25T14:20:05.059Z,10.72
2022-11-25T14:23:09.796Z,10.66
2022-11-25T14:25:56.408Z,10.56
2022-11-25T14:28:42.001Z,10.47
2022-11-25T14:31:11.251Z,10.41
2022-11-25T14:34:00.310Z,10.38
2022-11-25T14:36:30.883Z,10.03
2022-11-25T14:39:00.888Z,10.17
2022-11-25T14:41:33.229Z,10.25
2022-11-25T14:44:04.035Z,10.15
2022-11-25T14:46:31.501Z,10.19
2022-11-25T14:49:00.289Z,10.14
2022-11-25T14:51:33.515Z,10.13
2022-11-25T14:54:00.855Z,9.99
2022-11-25T14:56:34.163Z,10.02
2022-11-25T14:59:01.504Z,9.86
2022-11-25T15:01:30.523Z,9.91
2022-11-25T15:04:05.059Z,9.81
2022-11-25T15:06:36.687Z,9.45
2022-11-25T15:09:04.206Z,9.58
2022-11-25T15:11:32.683Z,9.60
2022-11-25T15:14:02.980Z,9.69
2022-11-25T15:16:38.203Z,9.55
2022-11-25T15:19:06.909Z,9.62
2022-11-25T15:21:48.385Z,9.60
2022-11-25T15:24:28.197Z,9.44
2022-11-25T15:27:05.128Z,9.35
2022-11-25T15:29:36.379Z,9.25
2022-11-25T15:32:03.923Z,9.17
2022-11-25T15:34:31.356Z,9.28
2022-11-25T15:37:01.182Z,9.30
2022-11-25T15:39:29.487Z,9.18
2022-11-25T15:42:07.470Z,9.17
2022-11-25T15:44:38.624Z,9.30
2022-11-25T15:47:25.447Z,9.10
2022-11-25T15:50:02.513Z,9.15
2022-11-25T15:52:31.016Z,9.17
2022-11-25T15:55:31.875Z,9.06
2022-11-25T15:58:03.327Z,9.12
2022-11-25T16:00:30.877Z,9.07
2022-11-25T16:02:58.535Z,8.99
2022-11-25T16:05:31.860Z,9.01
2022-11-25T16:08:23.336Z,9.01
2022-11-25T16:10:55.317Z,8.94
2022-11-25T16:13:23.126Z,8.84
2022-11-25T16:16:12.175Z,8.69
2022-11-25T16:18:55.931Z,8.73
2022-11-25T16:21:30.709Z,8.64
2022-11-25T16:24:06.113Z,8.62
2022-11-25T16:26:38.156Z,8.62
2022-11-25T16:29:14.784Z,8.39
2022-11-25T16:31:42.185Z,8.42
2022-11-25T16:34:13.681Z,8.42
2022-11-25T16:36:41.312Z,8.51
2022-11-25T16:39:09.130Z,8.42
2022-11-25T16:41:36.737Z,8.40
2022-11-25T16:44:21.238Z,8.39
2022-11-25T16:46:48.954Z,8.24
2022-11-25T16:49:17.365Z,8.16
2022-11-25T16:51:44.704Z,8.11
2022-11-25T16:54:16.269Z,7.91
2022-11-25T16:56:43.631Z,7.98
2022-11-25T16:59:25.561Z,8.08
2022-11-25T17:01:53.432Z,8.13
2022-11-25T17:04:21.280Z,7.97
2022-11-25T17:07:16.391Z,7.84
2022-11-25T17:09:36.609Z,8.03
2022-11-25T17:12:04.595Z,7.87
2022-11-25T17:14:33.573Z,7.94
2022-11-25T17:17:01.436Z,7.83
2022-11-25T17:19:29.330Z,7.86
2022-11-25T17:21:56.761Z,7.84
2022-11-25T17:24:24.755Z,7.55
2022-11-25T17:27:00.451Z,7.74
2022-11-25T17:29:33.007Z,7.35
2022-11-25T17:32:00.433Z,7.38
2022-11-25T17:34:28.080Z,7.50
2022-11-25T17:36:55.452Z,7.68
2022-11-25T17:39:22.835Z,7.56
2022-11-25T17:41:50.928Z,7.66
2022-11-25T17:44:28.503Z,7.64
2022-11-25T17:46:57.283Z,7.28
2022-11-25T17:49:24.763Z,7.29
2022-11-25T17:51:52.109Z,6.84
2022-11-25T17:54:19.721Z,7.19
2022-11-25T17:56:52.097Z,7.00
2022-11-25T17:59:30.434Z,6.99
2022-11-25T18:01:59.205Z,7.21
2022-11-25T18:04:29.858Z,7.28
2022-11-25T18:06:57.234Z,6.89
2022-11-25T18:09:24.583Z,6.76
2022-11-25T18:11:53.867Z,6.99
2022-11-25T18:14:34.460Z,7.13
2022-11-25T18:17:03.808Z,7.33
2022-11-25T18:19:31.678Z,6.74
2022-11-25T18:22:15.601Z,6.97
2022-11-25T18:24:43.250Z,6.96
2022-11-25T18:27:32.088Z,7.02
2022-11-25T18:30:02.532Z,7.01
2022-11-25T18:32:30.562Z,6.66
2022-11-25T18:34:57.901Z,7.00
2022-11-25T18:37:25.576Z,6.82
2022-11-25T18:39:52.939Z,6.78
2022-11-25T18:42:27.073Z,6.78
2022-11-25T18:44:55.178Z,6.77
2022-11-25T18:47:22.536Z,6.43
2022-11-25T18:49:55.089Z,6.84
2022-11-25T18:52:24.664Z,6.93
2022-11-25T18:54:52.172Z,6.75
2022-11-25T18:57:19.507Z,6.44
2022-11-25T18:59:55.975Z,6.55
2022-11-25T19:02:34.776Z,6.44
2022-11-25T19:05:02.843Z,6.82
2022-11-25T19:07:30.304Z,6.53
2022-11-25T19:09:57.649Z,6.63
2022-11-25T19:12:25.294Z,6.55
2022-11-25T19:14:52.689Z,6.68
2022-11-25T19:17:21.436Z,6.50
2022-11-25T19:19:49.068Z,6.48
2022-11-25T19:22:18.040Z,6.29
2022-11-25T19:24:46.150Z,6.60
2022-11-25T19:27:23.356Z,6.43
2022-11-25T19:29:50.916Z,6.53
2022-11-25T19:32:21.146Z,6.34
2022-11-25T19:34:53.141Z,6.17
2022-11-25T19:37:21.572Z,6.55
2022-11-25T19:39:52.111Z,6.23
2022-11-25T19:42:19.505Z,6.55
2022-11-25T19:44:47.149Z,6.53
2022-11-25T19:47:24.771Z,6.35
2022-11-25T19:49:57.212Z,6.50
2022-11-25T19:52:30.717Z,6.47
2022-11-25T19:54:58.313Z,6.53
2022-11-25T19:57:25.655Z,6.43
2022-11-25T19:59:52.972Z,6.56
2022-11-25T20:02:22.049Z,6.57
2022-11-25T20:04:51.119Z,6.49
2022-11-25T20:07:19.451Z,6.44
2022-11-25T20:09:47.551Z,6.37
2022-11-25T20:12:21.708Z,6.50
2022-11-25T20:14:49.158Z,6.47
2022-11-25T20:17:27.456Z,6.38
2022-11-25T20:19:57.131Z,6.45
2022-11-25T20:22:26.951Z,6.42
2022-11-25T20:24:54.239Z,6.28
2022-11-25T20:27:24.398Z,6.30
2022-11-25T20:29:52.048Z,6.40
2022-11-25T20:32:28.113Z,6.28
2022-11-25T20:34:58.652Z,6.34
2022-11-25T20:37:26.438Z,6.38
2022-11-25T20:39:55.346Z,6.24
2022-11-25T20:42:23.032Z,6.13
2022-11-25T20:44:55.941Z,5.92
2022-11-25T20:47:26.451Z,5.97
2022-11-25T20:49:53.996Z,6.26
2022-11-25T20:52:28.334Z,6.06
2022-11-25T20:54:56.169Z,6.16
2022-11-25T20:57:23.775Z,6.29
2022-11-25T20:59:51.241Z,6.14
2022-11-25T21:02:21.535Z,6.27
2022-11-25T21:04:49.089Z,6.32
2022-11-25T21:07:17.886Z,6.19
2022-11-25T21:09:45.583Z,6.32
2022-11-25T21:12:19.439Z,6.25
2022-11-25T21:14:47.479Z,6.28
2022-11-25T21:17:14.930Z,6.43
2022-11-25T21:19:42.268Z,6.09
2022-11-25T21:22:22.403Z,5.88
2022-11-25T21:24:49.764Z,5.95
2022-11-25T21:27:17.399Z,6.04
2022-11-25T21:29:44.776Z,6.00
2022-11-25T21:32:22.615Z,5.48
2022-11-25T21:34:50.236Z,5.82
2022-11-25T21:37:18.226Z,5.99
2022-11-25T21:39:45.533Z,5.69
2022-11-25T21:42:17.777Z,5.96
2022-11-25T21:44:45.103Z,5.66
2022-11-25T21:47:23.456Z,5.54
2022-11-25T21:49:51.118Z,5.43
2022-11-25T21:52:18.837Z,5.66
2022-11-25T21:54:46.196Z,5.85
2022-11-25T21:57:26.194Z,5.92
2022-11-25T21:59:53.923Z,5.96
2022-11-25T22:02:22.352Z,5.96
2022-11-25T22:04:50.210Z,5.69
2022-11-25T22:07:17.643Z,5.82
2022-11-25T22:09:45.012Z,5.94
2022-11-25T22:12:30.571Z,6.22
2022-11-25T22:14:58.274Z,6.17
2022-11-25T22:17:26.152Z,6.26
2022-11-25T22:19:53.558Z,6.31
2022-11-25T22:22:20.981Z,6.40
2022-11-25T22:24:48.556Z,6.58
2022-11-25T22:27:22.215Z,6.60
2022-11-25T22:29:49.826Z,6.77
2022-11-25T22:32:17.344Z,6.33
2022-11-25T22:34:44.701Z,6.46
2022-11-25T22:37:17.036Z,6.51
2022-11-25T22:39:44.385Z,6.82
2022-11-25T22:42:28.658Z,6.70
2022-11-25T22:44:56.327Z,6.83
2022-11-25T22:47:37.744Z,6.52
2022-11-25T22:50:12.384Z,6.61
2022-11-25T22:52:40.006Z,6.83
2022-11-25T22:55:18.207Z,6.72
2022-11-25T22:57:46.473Z,6.83
2022-11-25T23:00:25.347Z,6.59
2022-11-25T23:02:55.155Z,6.41
2022-11-25T23:05:32.190Z,6.42
2022-11-25T23:08:18.091Z,6.34
2022-11-25T23:10:45.522Z,6.74
2022-11-25T23:13:14.510Z,6.76
2022-11-25T23:15:44.571Z,6.80
2022-11-25T23:18:14.542Z,6.54
2022-11-25T23:20:42.439Z,6.48
2022-11-25T23:23:15.839Z,6.71
2022-11-25T23:25:43.680Z,6.55
2022-11-25T23:28:11.088Z,6.28
2022-11-25T23:30:38.765Z,6.37
2022-11-25T23:33:09.281Z,6.22
2022-11-25T23:35:37.260Z,6.01
2022-11-25T23:38:07.933Z,5.50
2022-11-25T23:40:35.545Z,5.78
2022-11-25T23:43:03.070Z,6.20
2022-11-25T23:45:30.493Z,6.34
2022-11-25T23:47:58.108Z,6.21
2022-11-25T23:50:25.260Z,6.21
2022-11-25T23:52:52.839Z,6.34
2022-11-25T23:55:23.901Z,6.47
2022-11-25T23:57:51.240Z,6.57
